createdAt,value
2022-08-03T00:01:19.287Z,1.13
2022-08-03T00:03:53.263Z,0.90
2022-08-03T00:06:27.211Z,1.35
2022-08-03T00:09:01.663Z,1.02
2022-08-03T00:11:37.657Z,1.25
2022-08-03T00:14:11.637Z,1.25
2022-08-03T00:16:45.576Z,1.20
2022-08-03T00:19:19.880Z,0.90
2022-08-03T00:21:53.771Z,1.20
2022-08-03T00:24:27.596Z,1.15
2022-08-03T00:27:03.350Z,1.10
2022-08-03T00:30:00.113Z,1.20
2022-08-03T00:32:32.266Z,1.20
2022-08-03T00:35:11.342Z,1.20
2022-08-03T00:37:52.314Z,1.15
2022-08-03T00:40:26.422Z,1.20
2022-08-03T00:43:05.155Z,0.93
2022-08-03T00:45:41.525Z,0.90
2022-08-03T00:48:29.520Z,1.10
2022-08-03T00:51:08.547Z,0.98
2022-08-03T00:53:42.733Z,1.10
2022-08-03T00:56:16.816Z,1.05
2022-08-03T00:58:54.001Z,1.00
2022-08-03T01:01:30.729Z,1.10
2022-08-03T01:04:06.743Z,1.02
2022-08-03T01:06:51.726Z,0.93
2022-08-03T01:09:39.748Z,1.20
2022-08-03T01:12:23.889Z,0.85
2022-08-03T01:15:11.079Z,1.20
2022-08-03T01:17:57.624Z,1.38
2022-08-03T01:20:38.089Z,1.13
2022-08-03T01:23:45.510Z,1.02
2022-08-03T01:27:10.706Z,1.30
2022-08-03T01:30:06.159Z,1.00
2022-08-03T01:33:02.302Z,1.33
2022-08-03T01:35:46.230Z,1.17
2022-08-03T01:38:27.515Z,1.10
2022-08-03T01:41:07.474Z,1.10
2022-08-03T01:43:59.032Z,0.90
2022-08-03T01:46:49.257Z,1.00
2022-08-03T01:49:23.745Z,1.17
2022-08-03T01:52:04.474Z,1.17
2022-08-03T01:54:48.042Z,1.20
2022-08-03T01:57:25.717Z,1.00
2022-08-03T02:00:02.212Z,1.13
2022-08-03T02:02:40.771Z,1.10
2022-08-03T02:05:16.842Z,1.10
2022-08-03T02:07:54.041Z,1.30
2022-08-03T02:10:34.478Z,1.20
2022-08-03T02:13:19.876Z,1.27
2022-08-03T02:16:03.903Z,1.20
2022-08-03T02:18:41.449Z,0.93
2022-08-03T02:21:55.664Z,1.20
2022-08-03T02:24:12.181Z,1.20
2022-08-03T02:26:47.818Z,1.23
2022-08-03T02:29:39.054Z,1.10
2022-08-03T02:32:25.260Z,1.10
2022-08-03T02:35:02.462Z,1.40
2022-08-03T02:37:42.791Z,1.20
2022-08-03T02:40:21.791Z,1.20
2022-08-03T02:43:01.267Z,1.37
2022-08-03T02:45:45.486Z,0.97
2022-08-03T02:48:28.546Z,1.10
2022-08-03T02:51:06.672Z,1.30
2022-08-03T02:53:43.528Z,1.20
2022-08-03T02:56:20.479Z,1.20
2022-08-03T02:58:55.767Z,1.20
2022-08-03T03:01:32.062Z,1.40
2022-08-03T03:04:07.532Z,1.40
2022-08-03T03:06:45.513Z,1.30
2022-08-03T03:09:23.600Z,1.23
2022-08-03T03:12:07.475Z,1.50
2022-08-03T03:14:42.094Z,1.35
2022-08-03T03:17:19.406Z,1.40
2022-08-03T03:19:55.907Z,1.10
2022-08-03T03:22:35.007Z,1.20
2022-08-03T03:25:10.415Z,1.40
2022-08-03T03:27:49.512Z,1.27
2022-08-03T03:30:25.194Z,1.33
2022-08-03T03:33:00.460Z,1.27
2022-08-03T03:35:39.157Z,1.17
2022-08-03T03:38:14.738Z,1.40
2022-08-03T03:40:50.627Z,1.13
2022-08-03T03:43:26.548Z,1.10
2022-08-03T03:46:01.571Z,1.20
2022-08-03T03:48:36.113Z,1.47
2022-08-03T03:51:11.392Z,1.67
2022-08-03T03:53:58.921Z,1.40
2022-08-03T03:56:32.874Z,1.53
2022-08-03T03:59:06.971Z,1.40
2022-08-03T04:01:41.161Z,1.23
2022-08-03T04:04:32.406Z,1.27
2022-08-03T04:07:23.760Z,1.33
2022-08-03T04:10:17.644Z,1.33
2022-08-03T04:12:55.317Z,1.40
2022-08-03T04:15:32.913Z,1.30
2022-08-03T04:18:09.961Z,1.30
2022-08-03T04:20:50.787Z,1.47
2022-08-03T04:23:29.169Z,1.40
2022-08-03T04:26:09.980Z,1.20
2022-08-03T04:28:47.652Z,1.70
2022-08-03T04:31:25.470Z,1.60
2022-08-03T04:34:01.625Z,1.37
2022-08-03T04:36:45.976Z,1.43
2022-08-03T04:39:27.858Z,1.60
2022-08-03T04:42:09.189Z,1.63
2022-08-03T04:44:47.783Z,1.87
2022-08-03T04:47:22.469Z,1.70
2022-08-03T04:49:57.454Z,1.67
2022-08-03T04:52:32.063Z,1.90
2022-08-03T04:55:07.239Z,1.80
2022-08-03T04:57:42.991Z,1.90
2022-08-03T05:00:19.124Z,1.70
2022-08-03T05:02:54.751Z,1.80
2022-08-03T05:05:47.434Z,2.33
2022-08-03T05:08:28.038Z,1.93
2022-08-03T05:11:02.864Z,2.10
2022-08-03T05:13:38.207Z,2.33
2022-08-03T05:16:13.959Z,2.17
2022-08-03T05:18:48.192Z,2.57
2022-08-03T05:21:22.605Z,2.17
2022-08-03T05:23:56.935Z,2.57
2022-08-03T05:26:31.305Z,2.80
2022-08-03T05:29:12.300Z,2.33
2022-08-03T05:31:47.278Z,2.37
2022-08-03T05:34:24.704Z,2.40
2022-08-03T05:36:58.992Z,2.17
2022-08-03T05:39:33.059Z,3.00
2022-08-03T05:42:11.935Z,2.37
2022-08-03T05:44:47.347Z,1.98
2022-08-03T05:47:21.178Z,2.42
2022-08-03T05:49:55.156Z,2.45
2022-08-03T05:52:29.146Z,2.15
2022-08-03T05:55:03.322Z,2.20
2022-08-03T05:57:38.350Z,2.50
2022-08-03T06:00:15.331Z,2.13
2022-08-03T06:02:49.868Z,2.42
2022-08-03T06:05:24.443Z,2.35
2022-08-03T06:07:58.760Z,2.38
2022-08-03T06:10:36.967Z,2.17
2022-08-03T06:13:12.119Z,2.10
2022-08-03T06:15:47.733Z,2.10
2022-08-03T06:18:24.974Z,2.67
2022-08-03T06:21:14.059Z,2.03
2022-08-03T06:23:53.210Z,2.47
2022-08-03T06:26:30.095Z,2.30
2022-08-03T06:29:04.283Z,2.30
2022-08-03T06:31:39.935Z,2.13
2022-08-03T06:34:33.567Z,2.35
2022-08-03T06:37:08.851Z,2.38
2022-08-03T06:39:43.059Z,2.33
2022-08-03T06:42:20.849Z,2.53
2022-08-03T06:44:57.114Z,2.50
2022-08-03T06:47:33.227Z,2.60
2022-08-03T06:50:12.574Z,2.70
2022-08-03T06:52:51.491Z,2.00
2022-08-03T06:55:25.670Z,2.00
2022-08-03T06:58:03.509Z,1.98
2022-08-03T07:00:38.266Z,2.15
2022-08-03T07:03:13.672Z,2.08
2022-08-03T07:05:48.000Z,2.30
2022-08-03T07:08:33.808Z,1.80
2022-08-03T07:11:08.750Z,2.08
2022-08-03T07:13:42.717Z,1.92
2022-08-03T07:16:17.040Z,1.83
2022-08-03T07:18:53.220Z,1.60
2022-08-03T07:21:27.627Z,1.90
2022-08-03T07:24:01.929Z,1.77
2022-08-03T07:26:35.999Z,1.77
2022-08-03T07:29:14.984Z,1.90
2022-08-03T07:31:50.522Z,1.65
2022-08-03T07:34:26.656Z,1.50
2022-08-03T07:37:00.606Z,1.70
2022-08-03T07:39:35.301Z,1.70
2022-08-03T07:42:09.382Z,1.40
2022-08-03T07:44:43.473Z,1.50
2022-08-03T07:47:22.456Z,1.63
2022-08-03T07:49:58.715Z,1.33
2022-08-03T07:52:52.214Z,1.73
2022-08-03T07:55:28.936Z,1.38
2022-08-03T07:58:06.272Z,1.50
2022-08-03T08:00:42.872Z,1.60
2022-08-03T08:03:16.946Z,1.65
2022-08-03T08:05:52.469Z,1.50
2022-08-03T08:08:26.562Z,1.52
2022-08-03T08:11:00.510Z,1.50
2022-08-03T08:13:35.076Z,1.40
2022-08-03T08:16:09.283Z,1.35
2022-08-03T08:18:43.355Z,1.70
2022-08-03T08:21:19.233Z,1.73
2022-08-03T08:23:56.959Z,1.60
2022-08-03T08:26:32.194Z,1.40
2022-08-03T08:29:06.896Z,1.58
2022-08-03T08:31:41.201Z,1.30
2022-08-03T08:34:15.401Z,1.50
2022-08-03T08:36:50.828Z,1.63
2022-08-03T08:39:27.193Z,1.75
2022-08-03T08:42:01.500Z,1.50
2022-08-03T08:44:35.568Z,1.30
2022-08-03T08:47:11.457Z,1.63
2022-08-03T08:49:58.375Z,1.75
2022-08-03T08:52:43.168Z,1.75
2022-08-03T08:55:23.811Z,1.58
2022-08-03T08:58:03.541Z,1.70
2022-08-03T09:00:41.699Z,1.50
2022-08-03T09:03:22.564Z,1.70
2022-08-03T09:06:05.466Z,1.40
2022-08-03T09:08:40.987Z,1.50
2022-08-03T09:11:53.425Z,1.48
2022-08-03T09:14:39.295Z,1.60
2022-08-03T09:17:17.459Z,1.50
2022-08-03T09:20:09.431Z,1.60
2022-08-03T09:22:57.188Z,1.50
2022-08-03T09:25:35.839Z,1.10
2022-08-03T09:28:12.910Z,1.63
2022-08-03T09:31:09.797Z,1.30
2022-08-03T09:33:50.239Z,1.70
2022-08-03T09:36:39.813Z,1.27
2022-08-03T09:39:16.697Z,1.40
2022-08-03T09:42:08.967Z,1.23
2022-08-03T09:44:47.009Z,1.30
2022-08-03T09:47:32.255Z,1.17
2022-08-03T09:50:10.769Z,1.48
2022-08-03T09:52:49.702Z,1.30
2022-08-03T09:56:35.256Z,1.30
2022-08-03T09:58:22.325Z,1.17
2022-08-03T10:01:03.896Z,1.30
2022-08-03T22:22:55.453Z,1.20
2022-08-03T22:25:34.977Z,1.10
2022-08-03T22:28:13.526Z,1.20
2022-08-03T22:30:49.272Z,1.40
2022-08-03T22:33:25.429Z,1.00
2022-08-03T22:36:01.348Z,1.02
2022-08-03T22:38:36.604Z,1.35
2022-08-03T22:41:10.396Z,1.60
2022-08-03T22:43:44.418Z,1.15
2022-08-03T22:46:23.078Z,1.42
2022-08-03T22:48:57.082Z,1.33
2022-08-03T22:51:32.133Z,1.40
2022-08-03T22:54:07.651Z,1.30
2022-08-03T22:56:41.955Z,1.70
2022-08-03T22:59:40.370Z,1.20
2022-08-03T23:02:21.219Z,1.15
2022-08-03T23:04:58.950Z,1.45
2022-08-03T23:07:35.886Z,1.23
2022-08-03T23:10:14.099Z,1.05
2022-08-03T23:12:51.075Z,1.38
2022-08-03T23:15:33.919Z,1.38
2022-08-03T23:18:09.480Z,1.50
2022-08-03T23:20:44.674Z,1.52
2022-08-03T23:23:20.895Z,0.98
2022-08-03T23:25:56.652Z,1.40
2022-08-03T23:28:33.495Z,1.10
2022-08-03T23:31:09.821Z,1.30
2022-08-03T23:33:46.786Z,1.38
2022-08-03T23:36:30.921Z,1.08
2022-08-03T23:39:06.099Z,1.45
2022-08-03T23:41:43.576Z,1.00
2022-08-03T23:44:19.729Z,1.50
2022-08-03T23:46:53.252Z,1.10
2022-08-03T23:49:26.765Z,1.10
2022-08-03T23:52:10.252Z,1.27
2022-08-03T23:54:58.654Z,1.10
2022-08-03T23:57:49.049Z,1.40
